Uchoa, Brazil
Current Conditions -  °F | °C
As of 7:00 PM on Tuesday 25 Nov 2014 (Local Time) from SBSR Reporting Station
Light Rain Light Rain  
Wind Chill: 73°   Ceiling: 7000
Heat Index: 73°   Visibility: 6mi
Dew Point: 70°   Wind: 2mph
Humidity: 88%   Direction: 330°NNW
Pressure: 29.83"   Gusts: NA
Location:  20.95°S, 49.17°W
Report Text: SBSR 252100Z 33002KT 9000 -RA SCT030 BKN070 23/21 Q1010
Loading
Personal Weather Stations






























Interactive Weather Map New forecast layout! Learn more

10-Day Weather Forecast

Advertisements
Track Severe Weather on mobile